Kanosh, Utah
Current Conditions -  °F | °C
As of 6:15 AM on Friday 24 Oct 2014 (Local Time) from KDTA Reporting Station
Clear Clear  
Wind Chill: 54°   Ceiling: Unl
Heat Index: 54°   Visibility: 10mi
Dew Point: 27°   Wind: 12mph
Humidity: 36%   Direction: 190°S
Pressure: 30.17"   Gusts: NA
Location:  38.8°N, 112.44°W
Report Text: KDTA 241215Z AUTO 19010KT 10SM CLR 12/M03 A3017 RMK AO1 T01221026
Loading
Personal Weather Stations






























Interactive Weather Map
Tropical Storm Tracking
New forecast layout! Learn more

10-Day Weather Forecast

Advertisements
Track Severe Weather on mobile